Weesatche, Texas
Current Conditions -  °F | °C
As of 8:58 AM on Friday 19 Dec 2014 (Local Time) from KVCT Reporting Station
Heavy Rain Heavy Rain  
Wind Chill: 55°   Ceiling: 600
Heat Index: 55°   Visibility: 1.5mi
Dew Point: 53°   Wind: 14mph
Humidity: 93%   Direction: 360°N
Pressure: 30.05"   Gusts: 25mph
Location:  28.85°N, 97.45°W
Report Text: KVCT 191458Z 36012G22KT 1 1/2SM +RA BR OVC006 13/12 A3005 RMK AO2 LTG DSNT SW P0004 T01280117
Loading
Personal Weather Stations






























Interactive Weather Map New forecast layout! Learn more

10-Day Weather Forecast

Advertisements
Track Severe Weather on mobile